createdAt,value
2023-03-23T15:59:31.539Z,99574.06
2023-03-23T16:01:58.855Z,99577.44
2023-03-23T16:04:27.064Z,99570.31
2023-03-23T16:06:55.330Z,99582.75
2023-03-23T16:09:22.858Z,99580.09
2023-03-23T16:11:50.338Z,99583.50
2023-03-23T16:14:17.529Z,99587.06
2023-03-23T16:16:47.926Z,99579.25
2023-03-23T16:19:18.167Z,99574.84
2023-03-23T16:21:45.395Z,99577.34
2023-03-23T16:24:12.716Z,99579.19
2023-03-23T16:26:41.055Z,99574.94
2023-03-23T16:29:23.933Z,99577.50
2023-03-23T16:32:00.192Z,99570.47
2023-03-23T16:34:30.007Z,99584.50
2023-03-23T16:36:57.420Z,99581.91
2023-03-23T16:39:24.997Z,99588.06
2023-03-23T16:41:52.314Z,99593.19
2023-03-23T16:44:19.559Z,99598.59
2023-03-23T16:46:47.119Z,99592.44
2023-03-23T16:49:14.360Z,99589.59
2023-03-23T16:51:42.882Z,99597.69
2023-03-23T16:54:11.058Z,99590.66
2023-03-23T16:56:38.449Z,99588.97
2023-03-23T16:59:06.205Z,99596.00
2023-03-23T17:01:36.859Z,99597.75
2023-03-23T17:04:04.245Z,99596.87
2023-03-23T17:06:31.587Z,99596.87
2023-03-23T17:08:59.100Z,99598.66
2023-03-23T17:11:26.512Z,99599.50
2023-03-23T17:13:53.701Z,99593.31
2023-03-23T17:16:21.250Z,99598.56
2023-03-23T17:18:51.014Z,99600.34
2023-03-23T17:21:20.699Z,99601.19
2023-03-23T17:23:48.182Z,99605.59
2023-03-23T17:26:15.619Z,99603.78
2023-03-23T17:28:43.028Z,99610.81
2023-03-23T17:31:10.679Z,99608.12
2023-03-23T17:33:38.198Z,99620.41
2023-03-23T17:36:05.782Z,99616.72
2023-03-23T17:38:34.716Z,99623.75
2023-03-23T17:41:04.202Z,99618.56
2023-03-23T17:43:32.250Z,99624.72
2023-03-23T17:45:59.862Z,99630.72
2023-03-23T17:48:27.520Z,99633.31
2023-03-23T17:50:57.614Z,99639.28
2023-03-23T17:53:26.813Z,99641.09
2023-03-23T17:55:57.003Z,99641.72
2023-03-23T17:58:27.640Z,99645.22
2023-03-23T18:00:56.394Z,99657.97
2023-03-23T18:03:25.396Z,99648.66
2023-03-23T18:05:58.634Z,99657.81
2023-03-23T18:08:29.484Z,99660.59
2023-03-23T18:10:58.249Z,99661.03
2023-03-23T18:13:27.313Z,99659.38
2023-03-23T18:15:57.230Z,99660.41
2023-03-23T18:18:25.462Z,99664.63
2023-03-23T18:20:59.302Z,99661.91
2023-03-23T18:23:28.374Z,99671.97
2023-03-23T18:25:59.753Z,99679.22
2023-03-23T18:28:27.926Z,99681.41
2023-03-23T18:30:56.162Z,99681.31
2023-03-23T18:33:26.297Z,99681.22
2023-03-23T18:35:59.227Z,99679.38
2023-03-23T18:38:28.515Z,99680.25
2023-03-23T18:40:56.356Z,99674.84
2023-03-23T18:43:24.801Z,99677.88
2023-03-23T18:45:54.587Z,99672.25
2023-03-23T18:48:23.001Z,99676.41
2023-03-23T18:50:53.173Z,99675.03
2023-03-23T18:53:24.119Z,99667.22
2023-03-23T18:55:52.556Z,99674.75
2023-03-23T18:58:25.805Z,99673.87
2023-03-23T19:00:58.998Z,99671.25
2023-03-23T19:03:27.481Z,99677.16
2023-03-23T19:06:00.989Z,99674.28
2023-03-23T19:08:30.119Z,99677.22
2023-03-23T19:11:04.462Z,99676.62
2023-03-23T19:13:34.682Z,99681.53
2023-03-23T19:16:04.121Z,99676.16
2023-03-23T19:18:32.409Z,99680.75
2023-03-23T19:23:34.478Z,99670.47
2023-03-23T19:26:02.655Z,99666.53
2023-03-23T19:29:09.728Z,99662.88
2023-03-23T19:31:22.338Z,99655.88
2023-03-23T19:33:52.212Z,99653.44
2023-03-23T19:36:21.963Z,99664.84
2023-03-23T19:38:51.108Z,99663.72
2023-03-23T19:41:20.325Z,99662.25
2023-03-23T19:43:49.704Z,99661.69
2023-03-23T19:46:21.338Z,99674.13
2023-03-23T19:48:54.616Z,99678.69
2023-03-23T19:51:28.570Z,99680.81
2023-03-23T19:53:57.531Z,99680.81
2023-03-23T19:56:26.223Z,99693.78
2023-03-23T19:58:54.750Z,99687.41
2023-03-23T20:01:24.139Z,99690.28
2023-03-23T20:03:55.403Z,99696.78
2023-03-23T20:06:28.695Z,99699.03
2023-03-23T20:09:00.066Z,99699.41
2023-03-23T20:11:31.139Z,99695.66
2023-03-23T20:14:00.042Z,99701.19
2023-03-23T20:16:29.160Z,99702.03
2023-03-23T20:19:00.336Z,99697.66
2023-03-23T20:21:30.885Z,99693.56
2023-03-23T20:24:00.748Z,99702.72
2023-03-23T20:26:32.690Z,99706.75
2023-03-23T20:29:02.274Z,99698.53
2023-03-23T20:31:36.424Z,99704.00
2023-03-23T20:34:06.717Z,99697.56
2023-03-23T20:36:36.950Z,99696.56
2023-03-23T20:39:06.340Z,99694.72
2023-03-23T20:41:36.524Z,99685.84
2023-03-23T20:44:08.921Z,99696.59
2023-03-23T20:46:37.155Z,99701.13
2023-03-23T20:49:06.513Z,99703.66
2023-03-23T20:51:35.400Z,99706.22
2023-03-23T20:54:05.424Z,99703.37
2023-03-23T20:56:34.382Z,99703.91
2023-03-23T20:59:03.047Z,99708.75
2023-03-23T21:01:33.372Z,99703.34
2023-03-23T21:04:03.479Z,99702.03
2023-03-23T21:06:33.468Z,99704.41
2023-03-23T21:09:01.531Z,99704.50
2023-03-23T21:11:30.424Z,99701.28
2023-03-23T21:13:58.667Z,99701.72
2023-03-23T21:16:27.207Z,99701.72
2023-03-23T21:18:55.645Z,99696.25
2023-03-23T21:21:24.119Z,99691.62
2023-03-23T21:23:53.423Z,99694.13
2023-03-23T21:26:22.582Z,99694.38
2023-03-23T21:28:50.753Z,99690.75
2023-03-23T21:31:18.233Z,99689.78
2023-03-23T21:33:46.429Z,99690.75
2023-03-23T21:36:14.569Z,99689.63
2023-03-23T21:38:45.133Z,99701.03
2023-03-23T21:41:13.544Z,99702.38
2023-03-23T21:43:41.571Z,99701.06
2023-03-23T21:46:09.466Z,99704.06
2023-03-23T21:48:38.723Z,99704.72
2023-03-23T21:51:07.194Z,99703.31
2023-03-23T21:53:36.798Z,99697.72
2023-03-23T21:56:05.271Z,99694.66
2023-03-23T21:58:33.088Z,99691.41
2023-03-23T22:01:01.415Z,99686.84
2023-03-23T22:03:44.285Z,99690.47
2023-03-23T22:06:12.708Z,99681.84
2023-03-23T22:08:41.172Z,99692.66
2023-03-23T22:11:12.966Z,99687.59
2023-03-23T22:13:41.061Z,99689.91
2023-03-23T22:16:09.580Z,99692.16
2023-03-23T22:18:37.990Z,99696.72
2023-03-23T22:21:06.071Z,99706.22
2023-03-23T22:23:33.881Z,99700.91
2023-03-23T22:26:01.917Z,99711.13
2023-03-23T22:28:31.075Z,99702.44
2023-03-23T22:31:03.542Z,99695.50
2023-03-23T22:33:31.395Z,99697.34
2023-03-23T22:35:58.756Z,99698.53
2023-03-23T22:38:26.042Z,99706.53
2023-03-23T22:40:57.025Z,99706.88
2023-03-23T22:43:24.588Z,99709.31
2023-03-23T22:45:52.125Z,99707.25
2023-03-23T22:48:20.278Z,99709.94
2023-03-23T22:50:47.549Z,99709.41
2023-03-23T22:53:15.298Z,99715.72
2023-03-23T22:55:43.820Z,99714.78
2023-03-23T22:58:11.095Z,99712.34
2023-03-23T23:00:39.185Z,99712.94
2023-03-23T23:03:07.567Z,99716.91
2023-03-23T23:05:35.490Z,99719.78
2023-03-23T23:08:02.998Z,99716.69
2023-03-23T23:10:30.472Z,99725.56
2023-03-23T23:12:57.785Z,99731.19
2023-03-23T23:15:24.952Z,99730.19
2023-03-23T23:17:52.498Z,99732.75
2023-03-23T23:20:19.950Z,99733.59
2023-03-23T23:22:47.176Z,99736.38
2023-03-23T23:25:14.716Z,99734.09
2023-03-23T23:27:42.295Z,99733.59
2023-03-23T23:30:10.005Z,99736.22
2023-03-23T23:32:37.662Z,99734.22
2023-03-23T23:35:05.411Z,99725.88
2023-03-23T23:37:32.864Z,99730.25
2023-03-23T23:40:00.414Z,99722.47
2023-03-23T23:42:27.623Z,99722.12
2023-03-23T23:44:54.855Z,99724.25
2023-03-23T23:47:22.354Z,99718.13
2023-03-23T23:49:49.594Z,99715.50
2023-03-23T23:52:16.778Z,99723.03
2023-03-23T23:54:47.284Z,99715.88
2023-03-23T23:57:14.996Z,99722.16
2023-03-23T23:59:42.592Z,99715.06
